This is the latest recevied weather packets stored in our database for station/object EFOU. If no packets are shown the sender has not sent any weather packets the latest 10 day(s).
| Time | Temp. | Humidity | Pressure | Rain* | Wind** | Luminosity | Snow |
|---|---|---|---|---|---|---|---|
| 1777817225 | 6.67° C | 47% | 1007.3 hPa | - | - | - | - |
| 1777816025 | 7.22° C | 46% | 1007.2 hPa | - | - | - | - |
| 1777814825 | 6.67° C | 46% | 1007.1 hPa | - | - | - | - |
| 1777813624 | 6.67° C | 47% | 1007 hPa | - | - | - | - |
| 1777812424 | 6.67° C | 48% | 1006.9 hPa | - | - | - | - |
| 1777811224 | 7.22° C | 49% | 1006.9 hPa | - | - | - | - |
| 1777810024 | 6.67° C | 50% | 1006.8 hPa | - | - | - | - |
| 1777808825 | 7.22° C | 49% | 1006.8 hPa | - | - | - | - |
| 1777807624 | 7.22° C | 52% | 1006.8 hPa | - | - | - | - |
| 1777806424 | 6.67° C | 52% | 1006.5 hPa | - | - | - | - |
| 1777805229 | 6.11° C | 55% | 1006.5 hPa | - | - | - | - |
| 1777804024 | 6.11° C | 58% | 1006.5 hPa | - | - | - | - |
| 1777802824 | 7.22° C | 53% | 1006.4 hPa | - | - | - | - |
| 1777801624 | 7.78° C | 51% | 1006.3 hPa | - | - | - | - |
| 1777800424 | 6.67° C | 56% | 1006.1 hPa | - | - | - | - |
| 1777799224 | 5.56° C | 60% | 1006.1 hPa | - | - | - | - |
| 1777798024 | 6.11° C | 59% | 1006 hPa | - | - | - | - |
| 1777796824 | 6.67° C | 52% | 1006 hPa | - | - | - | - |
| 1777795624 | 7.22° C | 54% | 1005.8 hPa | - | - | - | - |
| 1777794424 | 6.11° C | 58% | 1005.6 hPa | - | - | - | - |
| 1777793223 | 6.67° C | 58% | 1005.4 hPa | - | - | - | - |
| 1777792024 | 6.67° C | 55% | 1005.4 hPa | - | - | - | - |
| 1777790823 | 6.67° C | 53% | 1005.4 hPa | - | - | - | - |
| 1777789623 | 6.11° C | 56% | 1005.2 hPa | - | - | - | - |
| 1777788423 | 6.67° C | 51% | 1005.1 hPa | - | - | - | - |
* Rain since midnight (hover to see other rain measurements)
** Current wind speed in m/s (hover to see current wind gust speed)